Hlavní strana
METAR-TAF:

METAR-TAF

Letiště :

Jinotega, Nikaragua

zeměpisná šířka: 13-05N, zeměpisná délka: 085-59W, výška: 985 m

Aktuální stav počasí

Zpráva byla vytvořena před 11 hodinami a 45 minutami, v 23:00 UTC
Bezvětří
Teplota 23°C
Vlhkost vzduchu 73%
Tlak 1010 hPa
Viditelnost 10 km a více
Oblačno až skoro zataženo ve výšce 1800 ft

METAR: MNJG 232300Z 00000KT 9999 BKN018 23/18 Q1010

Čas: 04:45 (10:45 UTC)


TAF: chybějící

Stav a předpovědi počasí z více než 4 000 letišť (zprávy METAR a TAF).

Červené a žluté tečky na mapě představují dostupné meteorologické stanice.

Když kurzor umístíte na tečku, zobrazí se název stanice.

Pak kliknutím zobrazíte stav a předpověď počasí.

Chcete-li změnit mapu, kliknutím na zelené tlačítko se znaménkem +mapu přiblížíte, kliknutím na zelené tlačítko se znaménkem – mapu oddálíte a kliknutím na zelené šipky přejdete na sousední mapy.


METAR-TAF: